createdAt,value
2022-11-29T00:01:23.297Z,8.30
2022-11-29T00:06:26.507Z,6.70
2022-11-29T00:09:05.653Z,6.20
2022-11-29T00:11:54.730Z,8.50
2022-11-29T00:14:22.848Z,8.40
2022-11-29T00:16:53.396Z,5.30
2022-11-29T00:19:20.666Z,5.20
2022-11-29T00:21:47.496Z,8.20
2022-11-29T00:24:14.190Z,7.30
2022-11-29T00:26:41.341Z,5.00
2022-11-29T00:29:10.125Z,4.40
2022-11-29T00:31:36.832Z,8.20
2022-11-29T00:34:06.347Z,6.00
2022-11-29T00:36:34.330Z,5.60
2022-11-29T00:39:02.352Z,6.40
2022-11-29T00:41:29.372Z,6.60
2022-11-29T00:43:56.139Z,7.40
2022-11-29T00:46:23.186Z,5.90
2022-11-29T00:48:49.896Z,6.10
2022-11-29T00:51:16.542Z,7.70
2022-11-29T00:53:43.268Z,5.90
2022-11-29T00:56:10.078Z,8.60
2022-11-29T00:58:36.793Z,7.90
2022-11-29T01:01:04.221Z,10.60
2022-11-29T01:03:31.498Z,7.20
2022-11-29T01:06:09.072Z,6.70
2022-11-29T01:08:36.568Z,6.90
2022-11-29T01:11:09.929Z,8.10
2022-11-29T01:13:36.711Z,7.70
2022-11-29T01:16:05.352Z,8.70
2022-11-29T01:18:33.012Z,7.40
2022-11-29T01:21:07.891Z,6.60
2022-11-29T01:23:35.726Z,6.40
2022-11-29T01:26:07.136Z,5.00
2022-11-29T01:31:11.700Z,5.30
2022-11-29T01:33:38.696Z,6.70
2022-11-29T01:36:07.632Z,8.30
2022-11-29T01:38:35.768Z,5.40
2022-11-29T01:41:07.659Z,4.80
2022-11-29T01:43:58.108Z,8.00
2022-11-29T01:46:45.526Z,8.10
2022-11-29T01:49:41.195Z,8.40
2022-11-29T01:52:17.503Z,5.10
2022-11-29T01:54:48.049Z,5.60
2022-11-29T01:57:15.927Z,6.00
2022-11-29T01:59:48.480Z,7.90
2022-11-29T02:02:21.654Z,7.90
2022-11-29T02:04:49.016Z,7.50
2022-11-29T02:07:16.121Z,5.60
2022-11-29T02:09:43.416Z,6.20
2022-11-29T02:12:22.351Z,7.20
2022-11-29T02:14:57.975Z,8.60
2022-11-29T02:17:37.166Z,4.80
2022-11-29T02:20:32.680Z,7.40
2022-11-29T02:23:20.400Z,5.10
2022-11-29T02:26:24.510Z,7.20
2022-11-29T02:29:24.933Z,6.30
2022-11-29T02:32:21.594Z,6.60
2022-11-29T02:35:09.429Z,8.10
2022-11-29T02:38:14.468Z,9.00
2022-11-29T02:41:10.172Z,6.90
2022-11-29T02:44:31.155Z,8.90
2022-11-29T02:47:27.448Z,6.20
2022-11-29T02:50:12.557Z,6.20
2022-11-29T02:52:55.315Z,9.20
2022-11-29T02:55:36.919Z,10.30
2022-11-29T02:58:49.829Z,10.90
2022-11-29T03:02:01.628Z,14.00
2022-11-29T03:07:33.011Z,12.30
2022-11-29T03:10:19.807Z,13.30
2022-11-29T03:12:52.448Z,15.60
2022-11-29T03:15:41.675Z,14.70
2022-11-29T03:18:27.307Z,15.50
2022-11-29T03:21:17.100Z,10.90
2022-11-29T03:23:54.064Z,10.20
2022-11-29T03:26:40.561Z,11.90
2022-11-29T03:29:45.759Z,14.20
2022-11-29T03:32:24.681Z,16.20
2022-11-29T03:35:00.091Z,11.80
2022-11-29T03:37:40.433Z,11.40
2022-11-29T03:40:12.681Z,13.00
2022-11-29T03:43:00.301Z,13.30
2022-11-29T03:45:48.304Z,11.50
2022-11-29T03:48:30.950Z,8.10
2022-11-29T03:51:06.350Z,7.70
2022-11-29T03:53:41.452Z,8.90
2022-11-29T03:56:32.841Z,9.80
2022-11-29T03:59:23.721Z,6.10
2022-11-29T04:02:25.552Z,7.70
2022-11-29T04:05:23.408Z,8.10
2022-11-29T04:08:37.219Z,7.30
2022-11-29T04:11:09.143Z,6.90
2022-11-29T04:14:14.185Z,8.00
2022-11-29T04:17:11.548Z,7.80
2022-11-29T04:20:10.278Z,8.30
2022-11-29T04:23:24.959Z,8.60
2022-11-29T04:26:00.365Z,7.70
2022-11-29T04:28:50.015Z,8.20
2022-11-29T04:31:36.018Z,6.50
2022-11-29T04:34:17.608Z,7.40
2022-11-29T04:39:57.270Z,7.50
2022-11-29T04:45:37.006Z,6.40
2022-11-29T04:48:44.045Z,8.00
2022-11-29T04:51:31.882Z,11.90
2022-11-29T04:54:25.948Z,9.60
2022-11-29T04:57:05.252Z,9.00
2022-11-29T04:59:48.626Z,6.30
2022-11-29T05:02:27.260Z,10.60
2022-11-29T05:05:12.558Z,8.50
2022-11-29T05:07:54.827Z,8.90
2022-11-29T05:10:33.609Z,9.10
2022-11-29T05:13:24.245Z,7.70
2022-11-29T05:16:11.271Z,6.70
2022-11-29T05:18:59.817Z,10.70
2022-11-29T05:21:47.495Z,8.60
2022-11-29T05:24:29.910Z,9.20
2022-11-29T05:27:14.735Z,8.90
2022-11-29T05:30:14.714Z,7.10
2022-11-29T05:33:17.217Z,8.70
2022-11-29T05:36:16.424Z,9.00
2022-11-29T05:39:05.215Z,8.90
2022-11-29T05:41:53.101Z,8.50
2022-11-29T05:44:35.186Z,14.10
2022-11-29T05:47:09.360Z,10.80
2022-11-29T05:50:11.649Z,9.10
2022-11-29T05:52:40.997Z,12.30
2022-11-29T05:55:13.352Z,13.00
2022-11-29T05:57:51.912Z,12.70
2022-11-29T06:00:19.509Z,14.10
2022-11-29T06:03:05.303Z,11.70
2022-11-29T06:05:59.986Z,14.50
2022-11-29T06:08:49.937Z,11.80
2022-11-29T06:11:31.947Z,15.80
2022-11-29T06:14:07.732Z,17.00
2022-11-29T06:17:18.231Z,11.80
2022-11-29T06:19:57.318Z,15.70
2022-11-29T06:23:02.053Z,15.00
2022-11-29T06:25:50.809Z,15.30
2022-11-29T06:29:01.023Z,17.10
2022-11-29T06:31:55.637Z,15.30
2022-11-29T06:34:31.339Z,14.30
2022-11-29T06:37:03.045Z,14.90
2022-11-29T06:39:30.070Z,17.50
2022-11-29T06:41:56.692Z,20.20
2022-11-29T06:44:23.730Z,16.10
2022-11-29T06:46:59.339Z,16.10
2022-11-29T06:49:55.315Z,16.00
2022-11-29T06:52:27.760Z,16.50
2022-11-29T06:55:22.582Z,14.10
2022-11-29T06:58:19.233Z,16.10
2022-11-29T07:01:17.838Z,15.90
2022-11-29T07:04:48.577Z,15.70
2022-11-29T07:07:21.152Z,13.40
2022-11-29T07:09:52.751Z,15.10
2022-11-29T07:12:20.156Z,16.60
2022-11-29T07:14:47.491Z,13.60
2022-11-29T07:17:30.020Z,15.20
2022-11-29T07:21:04.973Z,15.60
2022-11-29T07:23:44.887Z,18.10
2022-11-29T07:26:25.515Z,19.40
2022-11-29T07:29:13.873Z,16.90
2022-11-29T07:32:20.475Z,18.40
2022-11-29T07:35:09.750Z,14.00
2022-11-29T07:37:56.864Z,16.50
2022-11-29T07:40:42.510Z,16.80
2022-11-29T07:43:22.439Z,16.00
2022-11-29T07:45:49.405Z,13.90
2022-11-29T07:48:17.286Z,17.00
2022-11-29T07:50:44.572Z,16.60
2022-11-29T07:53:17.893Z,15.10
2022-11-29T07:55:45.912Z,18.20
2022-11-29T07:58:14.617Z,15.20
2022-11-29T08:00:42.826Z,15.20
2022-11-29T08:03:10.292Z,18.10
2022-11-29T08:05:37.959Z,14.80
2022-11-29T08:08:05.448Z,19.30
2022-11-29T08:10:32.312Z,20.50
2022-11-29T08:12:58.929Z,16.70
2022-11-29T08:15:25.677Z,18.30
2022-11-29T08:17:52.639Z,22.30
2022-11-29T08:20:20.064Z,25.60
2022-11-29T08:22:58.555Z,24.30
2022-11-29T08:25:27.229Z,31.80
2022-11-29T08:27:55.027Z,32.30
2022-11-29T08:30:22.771Z,32.90
2022-11-29T08:32:51.804Z,34.20
2022-11-29T08:35:21.150Z,34.80
2022-11-29T08:37:48.027Z,34.10
2022-11-29T08:40:16.022Z,33.00
2022-11-29T08:42:42.729Z,30.40
2022-11-29T08:45:10.585Z,29.60
2022-11-29T08:47:40.403Z,29.80
2022-11-29T08:50:13.886Z,34.30
2022-11-29T08:53:03.627Z,30.40
2022-11-29T08:55:34.281Z,25.90
2022-11-29T08:58:07.193Z,31.90
2022-11-29T09:00:35.106Z,28.20
2022-11-29T09:03:23.126Z,32.00
2022-11-29T09:05:50.140Z,28.00
2022-11-29T09:08:16.931Z,25.20
2022-11-29T09:10:44.293Z,25.10
2022-11-29T09:13:11.995Z,28.10
2022-11-29T09:15:41.450Z,27.70
2022-11-29T09:18:08.329Z,27.50
2022-11-29T09:20:35.266Z,28.40
2022-11-29T09:23:02.930Z,31.00
2022-11-29T09:25:29.773Z,32.80
2022-11-29T09:28:02.184Z,30.60
2022-11-29T09:30:30.896Z,24.70
2022-11-29T09:33:04.337Z,23.80
2022-11-29T09:35:32.213Z,29.30
2022-11-29T09:37:58.941Z,27.60
2022-11-29T09:40:37.411Z,27.90
2022-11-29T09:43:33.674Z,27.80
2022-11-29T09:46:36.153Z,25.70
2022-11-29T09:49:23.828Z,23.30
2022-11-29T09:52:00.395Z,22.10
2022-11-29T09:55:09.579Z,24.00
2022-11-29T09:57:38.205Z,23.90
2022-11-29T10:00:15.269Z,20.90
2022-11-29T10:02:50.577Z,20.70
2022-11-29T10:05:25.304Z,25.40
2022-11-29T10:08:09.048Z,24.00
2022-11-29T10:10:43.503Z,24.00
2022-11-29T10:13:16.033Z,20.20
2022-11-29T10:15:45.521Z,21.90
2022-11-29T10:18:23.243Z,19.50
2022-11-29T10:20:52.206Z,22.10
2022-11-29T10:23:34.952Z,20.50
2022-11-29T10:26:06.724Z,21.10
2022-11-29T10:28:36.147Z,18.00
2022-11-29T10:31:23.147Z,21.10
2022-11-29T10:33:50.371Z,18.30
2022-11-29T10:37:00.990Z,17.50
2022-11-29T10:40:03.872Z,19.40
2022-11-29T10:42:49.505Z,20.10
2022-11-29T10:45:21.496Z,22.20
2022-11-29T10:47:50.140Z,22.00
2022-11-29T10:50:25.336Z,22.00
2022-11-29T10:53:09.477Z,23.20
2022-11-29T10:55:52.869Z,22.10
2022-11-29T10:58:28.238Z,24.60
2022-11-29T11:01:09.736Z,24.40
2022-11-29T11:03:52.826Z,23.80
2022-11-29T11:06:42.453Z,21.20
2022-11-29T11:09:42.079Z,25.50
2022-11-29T11:12:15.634Z,22.20
2022-11-29T11:14:47.879Z,23.40
2022-11-29T11:17:22.293Z,25.80
2022-11-29T11:20:04.334Z,22.80
2022-11-29T11:22:32.894Z,19.90
2022-11-29T11:25:28.170Z,22.70
2022-11-29T11:27:57.396Z,24.30
2022-11-29T11:30:27.960Z,21.30
2022-11-29T11:33:19.426Z,23.60
2022-11-29T11:36:21.083Z,22.80
2022-11-29T11:38:57.901Z,22.00
2022-11-29T11:41:53.817Z,17.50
2022-11-29T11:44:49.853Z,21.60
2022-11-29T11:47:23.640Z,19.20
2022-11-29T11:50:02.737Z,16.70
2022-11-29T11:52:41.953Z,15.90
2022-11-29T11:55:32.964Z,15.30
2022-11-29T11:58:11.698Z,16.90
2022-11-29T12:01:03.350Z,15.80
2022-11-29T12:04:05.905Z,17.90
2022-11-29T12:07:02.308Z,14.00
2022-11-29T12:09:54.150Z,14.70
2022-11-29T12:12:30.478Z,15.30
2022-11-29T12:15:20.560Z,13.80
2022-11-29T12:18:13.852Z,15.50
2022-11-29T12:21:00.287Z,15.80
2022-11-29T12:23:29.745Z,19.50
2022-11-29T12:26:19.237Z,16.70
2022-11-29T12:28:59.779Z,14.30
2022-11-29T12:31:48.067Z,17.30
2022-11-29T12:34:43.393Z,16.90
2022-11-29T12:37:42.117Z,14.50
2022-11-29T12:40:22.110Z,14.70
2022-11-29T12:43:10.226Z,17.60
2022-11-29T12:45:48.282Z,16.30
2022-11-29T12:48:48.535Z,16.60
2022-11-29T12:51:49.415Z,14.60
2022-11-29T12:54:41.829Z,15.50
2022-11-29T12:57:26.670Z,15.00
2022-11-29T13:00:18.631Z,13.90
2022-11-29T13:03:20.972Z,15.10
2022-11-29T13:06:21.611Z,13.30
2022-11-29T13:09:43.252Z,14.90
2022-11-29T13:12:42.419Z,15.40
2022-11-29T13:15:24.913Z,12.40
2022-11-29T13:18:05.358Z,11.60
2022-11-29T13:21:12.978Z,8.90
2022-11-29T13:24:10.604Z,8.70
2022-11-29T13:26:39.577Z,8.30
2022-11-29T13:29:16.648Z,9.60
2022-11-29T13:31:45.996Z,7.90
2022-11-29T13:34:24.504Z,8.80
2022-11-29T13:37:04.090Z,9.40
2022-11-29T13:39:57.424Z,11.00
2022-11-29T13:42:48.254Z,7.60
2022-11-29T13:46:01.063Z,10.90
2022-11-29T13:48:28.436Z,12.00
2022-11-29T13:51:36.243Z,16.30
2022-11-29T13:54:12.129Z,10.70
2022-11-29T13:56:45.754Z,10.40
2022-11-29T13:59:27.202Z,10.50
2022-11-29T14:04:43.173Z,7.80
2022-11-29T14:07:18.183Z,10.90
2022-11-29T14:09:50.589Z,11.90
2022-11-29T14:12:37.704Z,7.50
2022-11-29T14:15:33.068Z,11.00
2022-11-29T14:18:04.599Z,8.30
2022-11-29T14:20:31.824Z,7.90
2022-11-29T14:23:04.706Z,8.00
2022-11-29T14:28:20.796Z,8.60
2022-11-29T14:30:54.304Z,10.30
2022-11-29T14:33:50.854Z,11.80
2022-11-29T14:36:25.288Z,12.50
2022-11-29T14:39:27.655Z,11.00
2022-11-29T14:42:17.892Z,13.60
2022-11-29T14:45:00.065Z,14.10
2022-11-29T14:47:31.348Z,13.90
2022-11-29T14:50:02.931Z,15.60
2022-11-29T14:52:39.643Z,16.20
2022-11-29T14:55:24.454Z,20.50
2022-11-29T14:57:56.709Z,16.10
2022-11-29T15:00:32.208Z,14.10
2022-11-29T15:03:32.470Z,12.60
2022-11-29T15:06:25.826Z,14.00
2022-11-29T15:09:02.041Z,16.10
2022-11-29T15:11:41.004Z,12.00
2022-11-29T15:14:34.122Z,11.50
2022-11-29T15:17:29.700Z,11.40
2022-11-29T15:20:41.517Z,12.10
2022-11-29T15:23:15.301Z,13.40
2022-11-29T15:25:52.069Z,14.70
2022-11-29T15:28:25.329Z,17.20
2022-11-29T15:31:08.814Z,18.20
2022-11-29T15:33:39.405Z,17.10
2022-11-29T15:36:10.506Z,17.60
2022-11-29T15:38:43.671Z,18.50
2022-11-29T15:41:33.613Z,18.30
2022-11-29T15:44:05.301Z,21.40
2022-11-29T15:46:34.541Z,22.00
2022-11-29T15:49:17.749Z,24.50
2022-11-29T15:51:56.411Z,28.90
2022-11-29T15:54:33.392Z,28.00
2022-11-29T15:57:05.072Z,25.10
2022-11-29T16:00:02.071Z,24.70
2022-11-29T16:02:36.432Z,23.10
2022-11-29T16:05:15.894Z,27.10
2022-11-29T16:07:45.271Z,23.30
2022-11-29T16:10:16.536Z,24.80
2022-11-29T16:12:57.321Z,22.60
2022-11-29T16:15:32.310Z,27.30
2022-11-29T16:18:14.267Z,23.40
2022-11-29T16:20:41.095Z,25.10
2022-11-29T16:23:12.721Z,21.00
2022-11-29T16:25:59.299Z,22.40
2022-11-29T16:28:33.784Z,21.40
2022-11-29T16:31:00.604Z,22.30
2022-11-29T16:33:27.720Z,22.60
2022-11-29T16:36:16.976Z,23.80
2022-11-29T16:38:54.775Z,21.00
2022-11-29T16:41:37.967Z,19.60
2022-11-29T16:44:43.698Z,22.80
2022-11-29T16:47:22.602Z,22.40
2022-11-29T16:50:01.486Z,24.80
2022-11-29T16:52:32.372Z,18.80
2022-11-29T16:54:59.722Z,21.40
2022-11-29T16:57:28.482Z,20.50
2022-11-29T16:59:55.372Z,22.00
2022-11-29T17:02:22.232Z,25.00
2022-11-29T17:04:50.723Z,20.50
2022-11-29T17:07:26.707Z,20.70
2022-11-29T17:09:54.197Z,20.00
2022-11-29T17:12:20.937Z,22.00
2022-11-29T17:14:47.901Z,20.20
2022-11-29T17:17:17.718Z,23.10
2022-11-29T17:19:45.199Z,22.30
2022-11-29T17:22:12.254Z,21.20
2022-11-29T17:24:43.565Z,24.10
2022-11-29T17:27:14.392Z,21.30
2022-11-29T17:29:41.094Z,25.90
2022-11-29T17:32:07.908Z,18.90
2022-11-29T17:34:34.648Z,23.00
2022-11-29T17:37:01.463Z,22.30
2022-11-29T17:39:28.322Z,22.40
2022-11-29T17:41:55.214Z,20.80
2022-11-29T17:44:22.212Z,22.40
2022-11-29T17:46:48.956Z,21.80
2022-11-29T17:49:17.955Z,22.90
2022-11-29T17:51:53.315Z,25.60
2022-11-29T17:54:24.136Z,23.00
2022-11-29T17:56:51.370Z,28.70
2022-11-29T17:59:18.919Z,24.30
2022-11-29T18:01:48.494Z,27.20
2022-11-29T18:04:17.137Z,26.60
2022-11-29T18:06:48.841Z,23.30
2022-11-29T18:09:16.540Z,26.60
2022-11-29T18:11:48.781Z,24.60
2022-11-29T18:14:22.923Z,26.10
2022-11-29T18:16:50.339Z,26.70
2022-11-29T18:19:20.418Z,26.50
2022-11-29T18:21:48.879Z,25.00
2022-11-29T18:24:15.677Z,25.30
2022-11-29T18:26:43.280Z,25.60
2022-11-29T18:29:10.541Z,26.30
2022-11-29T18:31:40.919Z,26.70
2022-11-29T18:34:10.288Z,28.70
2022-11-29T18:36:44.361Z,28.10
2022-11-29T18:39:14.479Z,27.90
2022-11-29T18:41:47.472Z,29.90
2022-11-29T18:44:18.894Z,26.70
2022-11-29T18:49:16.234Z,28.10
2022-11-29T18:51:45.562Z,31.80
2022-11-29T18:54:14.428Z,33.20
2022-11-29T18:56:42.698Z,29.60
2022-11-29T18:59:18.331Z,30.80
2022-11-29T19:01:47.090Z,30.80
2022-11-29T19:04:17.560Z,33.10
2022-11-29T19:06:44.609Z,33.70
2022-11-29T19:09:15.464Z,35.30
2022-11-29T19:11:42.281Z,29.70
2022-11-29T19:14:10.692Z,29.70
2022-11-29T19:16:43.240Z,34.80
2022-11-29T19:19:11.215Z,31.90
2022-11-29T19:21:39.231Z,29.90
2022-11-29T19:24:12.845Z,32.70
2022-11-29T19:26:40.722Z,32.70
2022-11-29T19:29:07.460Z,34.90
2022-11-29T19:31:34.141Z,30.90
2022-11-29T19:34:01.130Z,46.30
2022-11-29T19:36:30.918Z,36.60
2022-11-29T19:39:00.616Z,34.40
2022-11-29T19:41:29.508Z,38.60
2022-11-29T19:43:59.366Z,36.70
2022-11-29T19:46:30.027Z,34.80
2022-11-29T19:49:00.250Z,43.10
2022-11-29T19:51:28.221Z,42.70
2022-11-29T19:53:57.904Z,40.00
2022-11-29T19:56:25.595Z,37.90
2022-11-29T19:58:52.512Z,38.50
2022-11-29T20:01:24.472Z,39.70
2022-11-29T20:03:51.937Z,39.40
2022-11-29T20:06:19.117Z,41.50
2022-11-29T20:08:46.483Z,39.70
2022-11-29T20:11:22.438Z,46.00
2022-11-29T20:13:56.692Z,41.30
2022-11-29T20:16:25.027Z,43.60
2022-11-29T20:18:52.910Z,44.80
2022-11-29T20:21:31.599Z,45.70
2022-11-29T20:24:05.269Z,45.90
2022-11-29T20:26:35.557Z,44.40
2022-11-29T20:29:04.191Z,45.40
2022-11-29T20:31:33.903Z,41.80
2022-11-29T20:34:00.933Z,45.10
2022-11-29T20:37:06.768Z,44.30
2022-11-29T20:39:52.270Z,45.50
2022-11-29T20:42:28.045Z,39.70
2022-11-29T20:44:58.485Z,43.80
2022-11-29T20:47:32.393Z,44.80
2022-11-29T20:49:59.267Z,36.40
2022-11-29T20:53:06.063Z,38.00
2022-11-29T20:55:32.847Z,36.90
2022-11-29T20:57:59.528Z,36.00
2022-11-29T21:00:26.221Z,38.00
2022-11-29T21:02:52.957Z,41.30
2022-11-29T21:05:19.742Z,38.20
2022-11-29T21:07:46.612Z,35.50
2022-11-29T21:10:14.977Z,39.90
2022-11-29T21:12:44.980Z,37.70
2022-11-29T21:15:14.052Z,37.80
2022-11-29T21:17:42.480Z,37.50
2022-11-29T21:20:21.417Z,33.90
2022-11-29T21:23:19.359Z,38.50
2022-11-29T21:26:20.631Z,36.50
2022-11-29T21:29:11.310Z,36.80
2022-11-29T21:31:38.935Z,29.90
2022-11-29T21:34:05.789Z,35.70
2022-11-29T21:36:32.521Z,31.70
2022-11-29T21:39:03.583Z,33.10
2022-11-29T21:41:31.951Z,30.70
2022-11-29T21:44:06.519Z,32.10
2022-11-29T21:46:34.871Z,27.00
2022-11-29T21:49:01.723Z,28.30
2022-11-29T21:51:28.438Z,29.70
2022-11-29T21:53:55.127Z,27.00
2022-11-29T21:56:22.019Z,28.00
2022-11-29T21:58:48.720Z,24.40
2022-11-29T22:01:18.617Z,25.20
2022-11-29T22:03:45.691Z,23.80
2022-11-29T22:06:18.095Z,28.70
2022-11-29T22:08:44.818Z,26.70
2022-11-29T22:11:29.912Z,24.40
2022-11-29T22:14:17.233Z,24.80
2022-11-29T22:16:49.065Z,22.70
2022-11-29T22:19:34.064Z,24.30
2022-11-29T22:22:04.676Z,25.50
2022-11-29T22:24:35.072Z,22.30
2022-11-29T22:27:02.205Z,26.20
2022-11-29T22:29:28.852Z,23.50
2022-11-29T22:31:56.606Z,24.40
2022-11-29T22:34:26.270Z,23.80
2022-11-29T22:36:53.245Z,23.90
2022-11-29T22:39:19.956Z,24.00
2022-11-29T22:41:52.265Z,22.60
2022-11-29T22:44:20.661Z,22.10
2022-11-29T22:46:47.427Z,22.20
2022-11-29T22:49:14.214Z,24.90
2022-11-29T22:51:41.032Z,21.40
2022-11-29T22:54:10.788Z,20.90
2022-11-29T22:56:40.075Z,20.50
2022-11-29T22:59:08.170Z,22.20
2022-11-29T23:01:38.252Z,23.40
2022-11-29T23:04:07.453Z,22.10
2022-11-29T23:06:38.334Z,23.10
2022-11-29T23:09:20.355Z,25.40
2022-11-29T23:11:55.570Z,19.00
2022-11-29T23:14:23.205Z,23.20
2022-11-29T23:16:50.591Z,20.90
2022-11-29T23:19:17.523Z,21.30
2022-11-29T23:21:45.099Z,20.50
2022-11-29T23:24:13.089Z,19.00
2022-11-29T23:26:43.939Z,23.40
2022-11-29T23:29:14.689Z,19.70
2022-11-29T23:31:42.086Z,18.20
2022-11-29T23:34:11.229Z,22.40
2022-11-29T23:36:37.931Z,22.20
2022-11-29T23:39:05.963Z,21.20
2022-11-29T23:41:35.028Z,20.30
2022-11-29T23:44:05.298Z,21.80
2022-11-29T23:46:33.985Z,22.50
2022-11-29T23:49:00.645Z,22.70
2022-11-29T23:51:27.290Z,22.80
2022-11-29T23:53:54.227Z,23.30
2022-11-29T23:56:21.932Z,26.00
2022-11-29T23:58:49.045Z,21.70
